createdAt,value
2019-03-27T00:00:50.172Z,96.80
2019-03-27T00:03:21.936Z,96.80
2019-03-27T00:05:53.864Z,96.80
2019-03-27T00:08:24.035Z,96.80
2019-03-27T00:10:54.273Z,96.90
2019-03-27T00:13:24.915Z,96.90
2019-03-27T00:15:55.040Z,96.90
2019-03-27T00:18:27.047Z,96.90
2019-03-27T00:20:58.268Z,96.90
2019-03-27T00:23:29.735Z,97.20
2019-03-27T00:25:59.983Z,97.00
2019-03-27T00:28:30.288Z,96.90
2019-03-27T00:31:01.807Z,96.90
2019-03-27T00:33:32.092Z,96.90
2019-03-27T00:36:04.667Z,96.90
2019-03-27T00:38:35.035Z,97.40
2019-03-27T00:41:06.431Z,97.10
2019-03-27T00:43:38.652Z,97.00
2019-03-27T00:46:09.903Z,97.00
2019-03-27T00:48:40.039Z,97.30
2019-03-27T00:51:10.212Z,97.00
2019-03-27T00:53:43.565Z,96.20
2019-03-27T00:56:13.790Z,97.90
2019-03-27T00:58:46.134Z,97.70
2019-03-27T01:01:18.212Z,97.50
2019-03-27T01:03:48.431Z,97.30
2019-03-27T01:06:20.182Z,98.40
2019-03-27T01:08:50.939Z,99.80
2019-03-27T01:11:21.547Z,99.00
2019-03-27T01:13:51.670Z,99.90
2019-03-27T01:16:21.965Z,98.00
2019-03-27T01:18:52.143Z,99.30
2019-03-27T01:21:23.361Z,98.80
2019-03-27T01:23:55.054Z,98.20
2019-03-27T01:26:25.739Z,98.10
2019-03-27T01:28:55.999Z,98.20
2019-03-27T01:31:26.922Z,97.90
2019-03-27T01:33:58.235Z,97.60
2019-03-27T01:36:28.362Z,97.40
2019-03-27T01:39:00.339Z,97.30
2019-03-27T01:41:30.659Z,96.90
2019-03-27T01:44:02.691Z,97.30
2019-03-27T01:46:34.863Z,97.40
2019-03-27T01:49:06.167Z,97.20
2019-03-27T01:51:36.703Z,97.10
2019-03-27T01:54:08.352Z,97.10
2019-03-27T01:56:38.880Z,97.10
2019-03-27T01:59:09.426Z,97.10
2019-03-27T02:01:41.401Z,97.20
2019-03-27T02:04:13.130Z,97.20
2019-03-27T02:06:43.593Z,97.20
2019-03-27T02:09:13.870Z,97.20
2019-03-27T02:11:45.086Z,97.20
2019-03-27T02:14:15.331Z,97.20
2019-03-27T02:16:45.529Z,97.30
2019-03-27T02:19:15.775Z,97.30
2019-03-27T02:21:45.974Z,97.40
2019-03-27T02:24:16.743Z,97.30
2019-03-27T02:26:46.842Z,97.30
2019-03-27T02:29:17.150Z,97.30
2019-03-27T02:31:47.657Z,97.40
2019-03-27T02:34:18.001Z,97.40
2019-03-27T02:36:50.792Z,97.40
2019-03-27T02:39:21.113Z,97.50
2019-03-27T02:41:51.412Z,97.60
2019-03-27T02:44:22.755Z,97.60
2019-03-27T02:46:53.478Z,97.90
2019-03-27T02:49:23.679Z,97.60
2019-03-27T02:51:54.238Z,97.60
2019-03-27T02:54:24.423Z,97.60
2019-03-27T02:56:54.975Z,97.70
2019-03-27T02:59:25.383Z,97.70
2019-03-27T03:01:55.788Z,97.70
2019-03-27T03:04:26.227Z,97.60
2019-03-27T03:06:56.626Z,97.70
2019-03-27T03:09:26.985Z,97.70
2019-03-27T03:11:57.539Z,98.00
2019-03-27T03:14:28.046Z,98.00
2019-03-27T03:16:58.304Z,97.90
2019-03-27T03:19:28.978Z,97.90
2019-03-27T03:21:59.923Z,98.20
2019-03-27T03:24:30.616Z,97.80
2019-03-27T03:27:01.329Z,97.90
2019-03-27T03:29:31.630Z,97.80
2019-03-27T03:32:02.017Z,97.80
2019-03-27T03:34:32.369Z,97.80
2019-03-27T03:37:02.608Z,97.80
2019-03-27T03:39:33.550Z,97.80
2019-03-27T03:42:03.709Z,97.80
2019-03-27T03:44:34.066Z,97.80
2019-03-27T03:47:04.199Z,97.90
2019-03-27T03:49:34.674Z,97.80
2019-03-27T03:52:05.415Z,97.80
2019-03-27T03:54:36.391Z,98.10
2019-03-27T03:57:07.211Z,97.80
2019-03-27T03:59:39.072Z,97.80
2019-03-27T04:02:09.499Z,97.70
2019-03-27T04:04:41.597Z,97.70
2019-03-27T04:07:11.895Z,97.70
2019-03-27T04:09:42.167Z,97.80
2019-03-27T04:12:12.533Z,97.80
2019-03-27T04:14:43.046Z,97.80
2019-03-27T04:17:17.549Z,97.80
2019-03-27T04:19:45.687Z,97.80
2019-03-27T04:22:16.176Z,97.80
2019-03-27T04:24:47.031Z,97.70
2019-03-27T04:27:17.427Z,97.80
2019-03-27T04:29:47.778Z,97.80
2019-03-27T04:32:17.922Z,97.80
2019-03-27T04:34:48.343Z,97.70
2019-03-27T04:37:18.498Z,97.70
2019-03-27T04:39:48.987Z,97.70
2019-03-27T04:42:19.675Z,97.70
2019-03-27T04:44:50.061Z,97.80
2019-03-27T04:47:31.551Z,97.80
2019-03-27T04:49:52.522Z,97.90
2019-03-27T04:52:23.219Z,97.90
2019-03-27T04:54:53.707Z,98.00
2019-03-27T04:57:24.111Z,98.30
2019-03-27T04:59:54.263Z,98.40
2019-03-27T05:02:24.666Z,98.40
2019-03-27T05:04:55.117Z,98.70
2019-03-27T05:07:25.505Z,98.40
2019-03-27T05:09:55.918Z,98.30
2019-03-27T05:12:26.783Z,98.20
2019-03-27T05:14:57.271Z,98.10
2019-03-27T05:17:27.718Z,98.10
2019-03-27T05:19:58.273Z,98.10
2019-03-27T05:22:28.690Z,98.10
2019-03-27T05:24:59.091Z,98.00
2019-03-27T05:27:30.010Z,97.90
2019-03-27T05:30:00.349Z,97.80
2019-03-27T05:32:30.874Z,97.70
2019-03-27T05:35:01.393Z,97.80
2019-03-27T05:37:32.018Z,97.90
2019-03-27T05:40:03.033Z,97.90
2019-03-27T05:42:33.417Z,97.90
2019-03-27T05:45:03.933Z,97.90
2019-03-27T05:47:34.483Z,97.90
2019-03-27T05:50:04.971Z,97.90
2019-03-27T05:52:35.342Z,97.90
2019-03-27T05:55:06.126Z,97.90
2019-03-27T05:57:36.770Z,97.90
2019-03-27T06:00:07.051Z,97.80
2019-03-27T06:02:37.718Z,97.60
2019-03-27T06:05:07.867Z,97.60
2019-03-27T06:07:38.321Z,97.80
2019-03-27T06:10:09.706Z,97.50
2019-03-27T06:12:40.738Z,97.30
2019-03-27T06:15:11.038Z,97.20
2019-03-27T06:17:42.040Z,97.50
2019-03-27T06:20:12.312Z,98.10
2019-03-27T06:22:42.674Z,98.00
2019-03-27T06:25:13.265Z,97.70
2019-03-27T06:27:43.659Z,97.20
2019-03-27T06:30:15.716Z,96.40
2019-03-27T06:32:46.506Z,96.10
2019-03-27T06:35:20.139Z,95.40
2019-03-27T06:37:50.727Z,94.80
2019-03-27T06:40:21.063Z,93.90
2019-03-27T06:42:51.250Z,93.00
2019-03-27T06:45:21.687Z,92.50
2019-03-27T06:47:51.899Z,92.20
2019-03-27T06:50:24.202Z,91.80
2019-03-27T06:52:55.962Z,91.50
2019-03-27T06:55:26.675Z,91.20
2019-03-27T06:57:57.222Z,91.10
2019-03-27T07:00:35.883Z,91.30
2019-03-27T07:03:07.433Z,91.20
2019-03-27T07:05:39.420Z,91.40
2019-03-27T07:08:09.799Z,91.20
2019-03-27T07:10:40.690Z,90.70
2019-03-27T07:13:10.878Z,91.90
2019-03-27T07:15:41.770Z,93.10
2019-03-27T07:18:11.946Z,93.10
2019-03-27T07:20:42.470Z,91.90
2019-03-27T07:23:12.983Z,91.20
2019-03-27T07:25:43.571Z,91.20
2019-03-27T07:28:14.201Z,90.50
2019-03-27T07:30:44.947Z,89.20
2019-03-27T07:33:15.271Z,88.40
2019-03-27T07:35:45.702Z,90.10
2019-03-27T07:38:16.167Z,91.60
2019-03-27T07:40:46.736Z,92.90
2019-03-27T07:43:17.474Z,93.60
2019-03-27T07:45:47.906Z,94.10
2019-03-27T07:48:18.430Z,94.70
2019-03-27T07:50:49.143Z,95.00
2019-03-27T07:53:22.286Z,95.10
2019-03-27T07:55:51.718Z,95.50
2019-03-27T07:58:22.138Z,95.30
2019-03-27T08:00:52.458Z,95.50
2019-03-27T08:03:23.001Z,95.10
2019-03-27T08:05:53.776Z,95.00
2019-03-27T08:08:24.235Z,95.20
2019-03-27T08:10:54.778Z,95.70
2019-03-27T08:13:25.721Z,96.50
2019-03-27T08:15:56.332Z,96.70
2019-03-27T08:18:26.913Z,96.80
2019-03-27T08:20:57.151Z,96.70
2019-03-27T08:23:27.890Z,96.70
2019-03-27T08:25:58.306Z,96.30
2019-03-27T08:30:57.930Z,95.90
2019-03-27T08:33:28.291Z,90.50
2019-03-27T08:35:58.674Z,86.90
2019-03-27T08:38:29.496Z,86.30
2019-03-27T08:41:00.187Z,91.20
2019-03-27T08:43:30.626Z,94.70
2019-03-27T08:46:01.149Z,94.20
2019-03-27T08:48:31.682Z,95.30
2019-03-27T08:51:02.256Z,96.80
2019-03-27T08:53:32.581Z,96.90
2019-03-27T08:56:03.099Z,96.70
2019-03-27T08:58:33.524Z,96.50
2019-03-27T09:01:06.917Z,97.70
2019-03-27T09:03:38.486Z,97.20
2019-03-27T09:06:09.126Z,92.60
2019-03-27T09:08:41.564Z,91.30
2019-03-27T09:11:11.471Z,88.70
2019-03-27T09:13:42.042Z,86.70
2019-03-27T09:16:12.735Z,84.40
2019-03-27T09:18:43.198Z,87.10
2019-03-27T09:21:13.555Z,90.10
2019-03-27T09:23:45.900Z,93.70
2019-03-27T09:26:16.732Z,93.50
2019-03-27T09:28:47.047Z,94.20
2019-03-27T09:31:17.514Z,93.80
2019-03-27T09:33:47.935Z,96.00
2019-03-27T09:36:18.530Z,96.50
2019-03-27T09:38:48.954Z,95.30
2019-03-27T09:43:50.520Z,95.90
2019-03-27T09:46:21.041Z,98.60
2019-03-27T09:48:51.370Z,98.30
2019-03-27T09:51:22.582Z,96.90
2019-03-27T09:53:54.284Z,98.50
2019-03-27T10:01:23.286Z,97.40
2019-03-27T10:03:53.726Z,95.10
2019-03-27T10:06:24.361Z,98.30
2019-03-27T10:08:56.015Z,96.50
2019-03-27T10:11:26.386Z,94.70
2019-03-27T10:13:56.960Z,93.80
2019-03-27T10:16:27.439Z,96.00
2019-03-27T10:18:58.026Z,95.40
2019-03-27T10:21:28.495Z,95.80
2019-03-27T10:23:58.878Z,94.90
2019-03-27T10:26:29.241Z,97.40
2019-03-27T10:31:29.066Z,96.70
2019-03-27T10:33:59.630Z,97.90
2019-03-27T10:36:30.048Z,96.20
2019-03-27T10:39:00.203Z,95.20
2019-03-27T10:41:30.664Z,94.20
2019-03-27T10:44:01.181Z,97.20
2019-03-27T10:46:31.795Z,98.60
2019-03-27T10:49:02.235Z,96.30
2019-03-27T10:51:32.706Z,92.10
2019-03-27T10:54:03.063Z,92.30
2019-03-27T10:56:33.699Z,94.60
2019-03-27T10:59:04.288Z,94.60
2019-03-27T11:01:35.306Z,95.10
2019-03-27T11:04:07.515Z,94.10
2019-03-27T11:06:38.030Z,93.80
2019-03-27T11:09:10.219Z,92.20
2019-03-27T11:11:40.694Z,88.00
2019-03-27T11:14:11.189Z,91.00
2019-03-27T11:16:41.799Z,92.60
2019-03-27T11:19:13.825Z,90.10
2019-03-27T11:21:45.379Z,92.70
2019-03-27T11:24:15.793Z,93.10
2019-03-27T11:26:46.225Z,93.20
2019-03-27T11:29:16.410Z,90.70
2019-03-27T11:31:46.988Z,94.20
2019-03-27T11:34:19.327Z,93.10
2019-03-27T11:36:49.770Z,97.80
2019-03-27T11:39:20.157Z,96.30
2019-03-27T11:41:50.895Z,96.50
2019-03-27T11:44:21.338Z,91.60
2019-03-27T11:46:51.931Z,96.00
2019-03-27T11:49:22.280Z,95.20
2019-03-27T11:51:52.570Z,97.90
2019-03-27T11:54:23.831Z,91.30
2019-03-27T11:56:54.208Z,93.90
2019-03-27T11:59:24.612Z,93.40
2019-03-27T12:01:55.644Z,92.40
2019-03-27T12:04:26.165Z,95.80
2019-03-27T12:06:56.615Z,94.40
2019-03-27T12:09:28.286Z,88.30
2019-03-27T12:11:59.345Z,91.40
2019-03-27T12:14:29.719Z,90.90
2019-03-27T12:17:00.620Z,90.20
2019-03-27T12:19:30.836Z,93.50
2019-03-27T12:22:01.257Z,92.30
2019-03-27T12:24:31.809Z,93.00
2019-03-27T12:27:02.468Z,88.90
2019-03-27T12:29:34.667Z,92.00
2019-03-27T12:32:05.478Z,93.40
2019-03-27T12:34:37.621Z,95.20
2019-03-27T12:37:08.202Z,90.20
2019-03-27T12:39:40.713Z,90.10
2019-03-27T12:42:10.583Z,91.70
2019-03-27T12:44:40.987Z,91.40
2019-03-27T12:47:11.163Z,98.20
2019-03-27T12:49:41.930Z,93.50
2019-03-27T12:52:12.462Z,97.30
2019-03-27T12:54:43.068Z,90.00
2019-03-27T12:57:13.425Z,84.20
2019-03-27T12:59:43.970Z,92.30
2019-03-27T13:02:14.666Z,91.70
2019-03-27T13:04:47.028Z,93.40
2019-03-27T13:07:17.591Z,86.10
2019-03-27T13:09:50.042Z,92.00
2019-03-27T13:12:20.286Z,89.10
2019-03-27T13:14:50.731Z,94.50
2019-03-27T13:17:21.083Z,86.00
2019-03-27T13:19:52.014Z,95.40
2019-03-27T13:22:22.553Z,85.10
2019-03-27T13:24:53.103Z,93.00
2019-03-27T13:27:23.451Z,91.60
2019-03-27T13:29:53.931Z,93.60
2019-03-27T13:32:24.726Z,85.30
2019-03-27T13:34:55.163Z,86.40
2019-03-27T13:37:25.587Z,89.20
2019-03-27T13:39:56.041Z,91.70
2019-03-27T13:42:26.922Z,89.70
2019-03-27T13:44:57.408Z,91.40
2019-03-27T13:47:27.890Z,92.10
2019-03-27T13:49:58.333Z,92.80
2019-03-27T13:52:28.746Z,94.50
2019-03-27T13:55:00.726Z,91.10
2019-03-27T13:57:31.126Z,91.20
2019-03-27T14:00:01.698Z,89.00
2019-03-27T14:02:32.081Z,95.20
2019-03-27T14:05:02.838Z,94.90
2019-03-27T14:07:33.347Z,92.90
2019-03-27T14:10:03.906Z,91.30
2019-03-27T14:12:34.675Z,94.80
2019-03-27T14:15:05.974Z,95.00
2019-03-27T14:17:36.534Z,94.60
2019-03-27T14:20:08.459Z,92.40
2019-03-27T14:22:38.782Z,95.40
2019-03-27T14:25:10.102Z,93.30
2019-03-27T14:27:40.350Z,94.40
2019-03-27T14:30:12.167Z,94.70
2019-03-27T14:32:42.662Z,93.60
2019-03-27T14:35:13.582Z,92.10
2019-03-27T14:37:44.394Z,96.00
2019-03-27T14:40:15.062Z,94.90
2019-03-27T14:42:45.538Z,93.30
2019-03-27T14:45:16.139Z,94.70
2019-03-27T14:47:46.350Z,86.70
2019-03-27T14:50:16.528Z,94.80
2019-03-27T14:52:46.958Z,95.10
2019-03-27T14:55:17.418Z,94.80
2019-03-27T14:57:47.963Z,93.60
2019-03-27T15:00:18.763Z,93.60
2019-03-27T15:02:49.160Z,91.30
2019-03-27T15:05:21.130Z,93.90
2019-03-27T15:07:51.646Z,93.30
2019-03-27T15:10:22.286Z,91.40
2019-03-27T15:12:53.133Z,88.30
2019-03-27T15:15:23.613Z,90.50
2019-03-27T15:17:54.139Z,94.20
2019-03-27T15:20:24.548Z,94.40
2019-03-27T15:22:54.926Z,93.30
2019-03-27T15:25:25.508Z,96.40
2019-03-27T15:27:55.883Z,91.80
2019-03-27T15:30:26.251Z,90.90
2019-03-27T15:32:56.513Z,91.80
2019-03-27T15:35:26.890Z,91.70
2019-03-27T15:37:57.034Z,86.70
2019-03-27T15:40:43.090Z,92.10
2019-03-27T15:43:13.487Z,92.00
2019-03-27T15:45:44.862Z,89.60
2019-03-27T15:48:15.286Z,90.30
2019-03-27T15:50:55.597Z,94.20
2019-03-27T15:53:18.037Z,94.00
2019-03-27T15:55:48.433Z,93.30
2019-03-27T15:58:18.807Z,93.00
2019-03-27T16:00:49.163Z,93.20
2019-03-27T16:03:19.430Z,93.20
2019-03-27T16:05:49.810Z,93.20
2019-03-27T16:08:19.973Z,92.90
2019-03-27T16:10:50.469Z,92.60
2019-03-27T16:13:20.854Z,94.40
2019-03-27T16:15:51.333Z,94.30
2019-03-27T16:18:22.663Z,94.00
2019-03-27T16:20:53.116Z,93.40
2019-03-27T16:23:23.577Z,94.10
2019-03-27T16:25:53.942Z,92.80
2019-03-27T16:28:24.454Z,93.50
2019-03-27T16:30:55.513Z,93.90
2019-03-27T16:33:26.109Z,93.50
2019-03-27T16:35:58.286Z,90.00
2019-03-27T16:38:28.808Z,95.20
2019-03-27T16:40:59.667Z,94.50
2019-03-27T16:43:30.223Z,93.70
2019-03-27T16:46:01.011Z,94.90
2019-03-27T16:48:31.179Z,94.30
2019-03-27T16:51:01.739Z,92.30
2019-03-27T16:53:32.338Z,92.40
2019-03-27T16:56:02.903Z,94.10
2019-03-27T16:58:33.744Z,95.40
2019-03-27T17:01:04.430Z,95.00
2019-03-27T17:03:34.576Z,95.70
2019-03-27T17:06:04.966Z,95.70
2019-03-27T17:08:35.262Z,96.40
2019-03-27T17:11:05.897Z,96.50
2019-03-27T17:13:37.990Z,92.80
2019-03-27T17:16:08.570Z,95.70
2019-03-27T17:18:38.905Z,94.40
2019-03-27T17:21:09.950Z,96.10
2019-03-27T17:23:40.365Z,96.20
2019-03-27T17:26:10.846Z,95.70
2019-03-27T17:28:41.542Z,94.80
2019-03-27T17:31:11.938Z,91.70
2019-03-27T17:33:42.214Z,95.30
2019-03-27T17:36:15.369Z,95.30
2019-03-27T17:38:45.909Z,94.70
2019-03-27T17:41:16.883Z,96.20
2019-03-27T17:43:47.254Z,94.40
2019-03-27T17:46:17.651Z,96.80
2019-03-27T17:48:48.367Z,94.40
2019-03-27T17:51:18.787Z,95.70
2019-03-27T17:53:48.983Z,95.60
2019-03-27T17:56:19.637Z,95.50
2019-03-27T17:58:50.061Z,95.50
2019-03-27T18:01:20.555Z,94.90
2019-03-27T18:03:50.867Z,95.00
2019-03-27T18:06:21.674Z,95.10
2019-03-27T18:08:52.044Z,95.50
2019-03-27T18:11:24.038Z,94.60
2019-03-27T18:13:54.554Z,95.50
2019-03-27T18:16:25.436Z,95.70
2019-03-27T18:18:56.004Z,95.50
2019-03-27T18:21:26.448Z,95.10
2019-03-27T18:23:57.087Z,94.90
2019-03-27T18:26:27.431Z,94.80
2019-03-27T18:28:57.846Z,94.70
2019-03-27T18:31:28.157Z,94.60
2019-03-27T18:33:58.514Z,94.60
2019-03-27T18:36:28.911Z,94.60
2019-03-27T18:38:59.482Z,94.70
2019-03-27T18:41:29.630Z,94.70
2019-03-27T18:44:03.056Z,94.70
2019-03-27T18:46:32.051Z,94.80
2019-03-27T18:49:03.019Z,94.80
2019-03-27T18:51:33.768Z,94.70
2019-03-27T18:54:04.282Z,95.00
2019-03-27T18:56:34.686Z,94.80
2019-03-27T18:59:05.127Z,94.80
2019-03-27T19:01:36.593Z,94.70
2019-03-27T19:04:06.843Z,94.80
2019-03-27T19:06:37.186Z,94.90
2019-03-27T19:09:09.062Z,93.50
2019-03-27T19:11:39.383Z,95.10
2019-03-27T19:14:10.160Z,94.90
2019-03-27T19:16:40.757Z,94.90
2019-03-27T19:19:11.249Z,95.00
2019-03-27T19:21:41.690Z,94.90
2019-03-27T19:24:16.464Z,95.00
2019-03-27T19:26:44.754Z,95.10
2019-03-27T19:29:15.626Z,95.10
2019-03-27T19:31:45.951Z,95.00
2019-03-27T19:34:16.432Z,95.10
2019-03-27T19:36:46.815Z,94.90
2019-03-27T19:39:17.274Z,94.60
2019-03-27T19:41:47.998Z,96.10
2019-03-27T19:44:18.454Z,95.70
2019-03-27T19:46:48.967Z,95.40
2019-03-27T19:49:19.794Z,95.20
2019-03-27T19:51:50.198Z,95.10
2019-03-27T19:54:26.998Z,95.00
2019-03-27T19:56:56.505Z,94.90
2019-03-27T19:59:26.864Z,95.50
2019-03-27T20:01:57.617Z,95.40
2019-03-27T20:04:28.202Z,95.50
2019-03-27T20:06:58.598Z,95.30
2019-03-27T20:09:29.171Z,95.20
2019-03-27T20:11:59.526Z,95.10
2019-03-27T20:14:30.192Z,95.20
2019-03-27T20:17:00.422Z,95.30
2019-03-27T20:19:31.115Z,95.20
2019-03-27T20:22:01.451Z,95.10
2019-03-27T20:24:41.046Z,95.10
2019-03-27T20:27:04.008Z,95.10
2019-03-27T20:29:34.531Z,95.10
2019-03-27T20:32:05.012Z,95.20
2019-03-27T20:34:36.465Z,95.30
2019-03-27T20:37:07.234Z,95.40
2019-03-27T20:39:38.021Z,95.50
2019-03-27T20:42:08.361Z,95.40
2019-03-27T20:44:38.910Z,95.20
2019-03-27T20:47:09.701Z,96.10
2019-03-27T20:49:40.662Z,95.80
2019-03-27T20:52:11.253Z,95.60
2019-03-27T20:54:54.319Z,95.70
2019-03-27T20:57:13.807Z,95.70
2019-03-27T20:59:45.255Z,95.20
2019-03-27T21:02:15.679Z,95.90
2019-03-27T21:04:45.999Z,95.70
2019-03-27T21:07:16.731Z,95.60
2019-03-27T21:09:46.896Z,95.50
2019-03-27T21:12:17.399Z,95.40
2019-03-27T21:14:47.886Z,94.30
2019-03-27T21:17:18.398Z,95.80
2019-03-27T21:19:48.898Z,95.80
2019-03-27T21:22:19.314Z,95.70
2019-03-27T21:24:50.219Z,95.90
2019-03-27T21:27:20.868Z,95.70
2019-03-27T21:29:53.702Z,95.60
2019-03-27T21:32:23.898Z,95.50
2019-03-27T21:34:54.990Z,95.50
2019-03-27T21:37:25.530Z,95.50
2019-03-27T21:39:55.926Z,95.60
2019-03-27T21:42:26.814Z,95.70
2019-03-27T21:44:58.670Z,95.70
2019-03-27T21:47:29.076Z,95.70
2019-03-27T21:49:59.636Z,95.70
2019-03-27T21:52:30.062Z,95.90
2019-03-27T21:55:01.258Z,95.70
2019-03-27T21:57:31.713Z,95.80
2019-03-27T22:00:02.060Z,95.90
2019-03-27T22:02:32.740Z,95.90
2019-03-27T22:05:03.474Z,95.90
2019-03-27T22:07:34.153Z,95.90
2019-03-27T22:10:04.738Z,96.00
2019-03-27T22:12:37.992Z,96.00
2019-03-27T22:15:08.799Z,95.80
2019-03-27T22:17:39.420Z,95.70
2019-03-27T22:20:11.246Z,95.60
2019-03-27T22:22:44.356Z,95.60
2019-03-27T22:25:14.490Z,95.70
2019-03-27T22:27:45.234Z,95.70
2019-03-27T22:30:18.015Z,95.80
2019-03-27T22:32:48.280Z,95.70
2019-03-27T22:35:18.825Z,95.70
2019-03-27T22:37:49.072Z,95.70
2019-03-27T22:40:19.742Z,95.70
2019-03-27T22:42:50.233Z,95.70
2019-03-27T22:45:21.034Z,95.70
2019-03-27T22:47:51.546Z,95.70
2019-03-27T22:50:21.995Z,95.70
2019-03-27T22:52:53.134Z,95.80
2019-03-27T22:55:23.562Z,95.90
2019-03-27T22:57:54.118Z,95.90
2019-03-27T23:00:32.327Z,95.90
2019-03-27T23:03:03.139Z,95.90
2019-03-27T23:05:33.943Z,95.90
2019-03-27T23:08:04.334Z,95.90
2019-03-27T23:10:36.750Z,96.00
2019-03-27T23:13:07.430Z,95.90
2019-03-27T23:15:37.980Z,95.80
2019-03-27T23:18:08.176Z,96.30
2019-03-27T23:20:38.700Z,96.60
2019-03-27T23:23:09.117Z,96.30
2019-03-27T23:25:39.479Z,96.20
2019-03-27T23:28:09.854Z,96.10
2019-03-27T23:30:40.332Z,96.10
2019-03-27T23:33:11.094Z,96.10
2019-03-27T23:35:41.632Z,96.10
2019-03-27T23:38:12.066Z,96.20
2019-03-27T23:40:42.402Z,96.10
2019-03-27T23:43:12.825Z,96.10
2019-03-27T23:45:43.282Z,96.10
2019-03-27T23:48:13.664Z,96.40
2019-03-27T23:50:43.843Z,96.10
2019-03-27T23:53:15.122Z,96.10
2019-03-27T23:55:45.365Z,96.10
2019-03-27T23:58:16.139Z,96.10
